sensor_id;sensor_type;location;lat;lon;timestamp;P1;durP1;ratioP1;P2;durP2;ratioP2
38455;SDS011;24237;50.106;20.014;2022-10-16T00:00:16;31.23;;;15.68;;
38455;SDS011;24237;50.106;20.014;2022-10-16T00:02:42;29.02;;;16.77;;
38455;SDS011;24237;50.106;20.014;2022-10-16T00:05:07;26.83;;;17.10;;
38455;SDS011;24237;50.106;20.014;2022-10-16T00:07:33;31.05;;;16.25;;
38455;SDS011;24237;50.106;20.014;2022-10-16T00:09:58;37.83;;;17.13;;
38455;SDS011;24237;50.106;20.014;2022-10-16T00:12:24;31.55;;;16.42;;
38455;SDS011;24237;50.106;20.014;2022-10-16T00:14:49;31.85;;;16.50;;
38455;SDS011;24237;50.106;20.014;2022-10-16T00:17:15;34.28;;;15.85;;
38455;SDS011;24237;50.106;20.014;2022-10-16T00:19:41;32.17;;;18.10;;
38455;SDS011;24237;50.106;20.014;2022-10-16T00:22:06;29.42;;;16.55;;
38455;SDS011;24237;50.106;20.014;2022-10-16T00:24:32;27.05;;;15.77;;
38455;SDS011;24237;50.106;20.014;2022-10-16T00:26:57;31.15;;;16.35;;
38455;SDS011;24237;50.106;20.014;2022-10-16T00:29:23;28.83;;;17.40;;
38455;SDS011;24237;50.106;20.014;2022-10-16T00:31:48;29.27;;;16.88;;
38455;SDS011;24237;50.106;20.014;2022-10-16T00:34:14;29.60;;;17.52;;
38455;SDS011;24237;50.106;20.014;2022-10-16T00:36:39;31.15;;;16.27;;
38455;SDS011;24237;50.106;20.014;2022-10-16T00:39:05;33.83;;;17.30;;
38455;SDS011;24237;50.106;20.014;2022-10-16T00:41:31;34.08;;;18.20;;
38455;SDS011;24237;50.106;20.014;2022-10-16T00:43:58;24.85;;;16.58;;
38455;SDS011;24237;50.106;20.014;2022-10-16T00:46:27;31.50;;;17.63;;
38455;SDS011;24237;50.106;20.014;2022-10-16T00:49:06;31.27;;;17.77;;
38455;SDS011;24237;50.106;20.014;2022-10-16T00:54:09;27.05;;;16.45;;
38455;SDS011;24237;50.106;20.014;2022-10-16T00:56:46;31.10;;;16.27;;
38455;SDS011;24237;50.106;20.014;2022-10-16T00:59:16;36.28;;;18.23;;
38455;SDS011;24237;50.106;20.014;2022-10-16T01:01:49;32.78;;;18.13;;
38455;SDS011;24237;50.106;20.014;2022-10-16T01:04:15;33.90;;;18.08;;
38455;SDS011;24237;50.106;20.014;2022-10-16T01:06:56;30.55;;;16.42;;
38455;SDS011;24237;50.106;20.014;2022-10-16T01:10:07;34.33;;;18.25;;
38455;SDS011;24237;50.106;20.014;2022-10-16T01:12:52;32.92;;;18.00;;
38455;SDS011;24237;50.106;20.014;2022-10-16T01:15:31;27.15;;;17.60;;
38455;SDS011;24237;50.106;20.014;2022-10-16T01:18:05;33.13;;;18.00;;
38455;SDS011;24237;50.106;20.014;2022-10-16T01:20:44;30.88;;;17.40;;
38455;SDS011;24237;50.106;20.014;2022-10-16T01:26:10;35.40;;;17.58;;
38455;SDS011;24237;50.106;20.014;2022-10-16T01:31:54;31.77;;;16.85;;
38455;SDS011;24237;50.106;20.014;2022-10-16T01:34:33;32.85;;;18.55;;
38455;SDS011;24237;50.106;20.014;2022-10-16T01:37:07;33.92;;;19.08;;
38455;SDS011;24237;50.106;20.014;2022-10-16T01:39:38;33.15;;;17.90;;
38455;SDS011;24237;50.106;20.014;2022-10-16T01:45:01;35.28;;;18.83;;
38455;SDS011;24237;50.106;20.014;2022-10-16T01:47:31;32.53;;;17.67;;
38455;SDS011;24237;50.106;20.014;2022-10-16T01:49:57;29.73;;;17.52;;
38455;SDS011;24237;50.106;20.014;2022-10-16T01:54:53;29.58;;;16.48;;
38455;SDS011;24237;50.106;20.014;2022-10-16T01:57:21;30.33;;;17.25;;
38455;SDS011;24237;50.106;20.014;2022-10-16T01:59:51;32.58;;;18.48;;
38455;SDS011;24237;50.106;20.014;2022-10-16T02:02:19;30.48;;;18.30;;
38455;SDS011;24237;50.106;20.014;2022-10-16T02:04:48;29.83;;;17.52;;
38455;SDS011;24237;50.106;20.014;2022-10-16T02:07:18;30.52;;;17.17;;
38455;SDS011;24237;50.106;20.014;2022-10-16T02:09:44;33.53;;;18.45;;
38455;SDS011;24237;50.106;20.014;2022-10-16T02:12:14;37.05;;;17.38;;
38455;SDS011;24237;50.106;20.014;2022-10-16T02:14:46;31.58;;;17.73;;
38455;SDS011;24237;50.106;20.014;2022-10-16T02:17:12;33.75;;;18.85;;
38455;SDS011;24237;50.106;20.014;2022-10-16T02:19:40;35.90;;;18.55;;
38455;SDS011;24237;50.106;20.014;2022-10-16T02:22:07;35.97;;;18.63;;
38455;SDS011;24237;50.106;20.014;2022-10-16T02:29:49;33.03;;;19.05;;
38455;SDS011;24237;50.106;20.014;2022-10-16T02:32:20;39.60;;;18.50;;
38455;SDS011;24237;50.106;20.014;2022-10-16T02:34:48;36.67;;;17.90;;
38455;SDS011;24237;50.106;20.014;2022-10-16T02:37:16;40.70;;;19.25;;
38455;SDS011;24237;50.106;20.014;2022-10-16T02:39:42;42.45;;;19.70;;
38455;SDS011;24237;50.106;20.014;2022-10-16T02:42:14;43.30;;;19.08;;
38455;SDS011;24237;50.106;20.014;2022-10-16T02:44:42;38.45;;;19.77;;
38455;SDS011;24237;50.106;20.014;2022-10-16T02:47:08;42.58;;;20.73;;
38455;SDS011;24237;50.106;20.014;2022-10-16T02:49:33;43.72;;;21.60;;
38455;SDS011;24237;50.106;20.014;2022-10-16T02:51:59;42.88;;;21.23;;
38455;SDS011;24237;50.106;20.014;2022-10-16T02:54:24;46.63;;;21.70;;
38455;SDS011;24237;50.106;20.014;2022-10-16T02:56:50;43.45;;;21.60;;
38455;SDS011;24237;50.106;20.014;2022-10-16T02:59:16;38.10;;;22.42;;
38455;SDS011;24237;50.106;20.014;2022-10-16T03:01:41;47.90;;;30.75;;
38455;SDS011;24237;50.106;20.014;2022-10-16T03:04:07;58.67;;;33.45;;
38455;SDS011;24237;50.106;20.014;2022-10-16T03:06:32;51.33;;;31.77;;
38455;SDS011;24237;50.106;20.014;2022-10-16T03:08:58;44.15;;;26.02;;
38455;SDS011;24237;50.106;20.014;2022-10-16T03:11:24;41.13;;;23.95;;
38455;SDS011;24237;50.106;20.014;2022-10-16T03:13:49;38.90;;;21.88;;
38455;SDS011;24237;50.106;20.014;2022-10-16T03:16:15;39.10;;;20.88;;
38455;SDS011;24237;50.106;20.014;2022-10-16T03:18:41;34.53;;;20.60;;
38455;SDS011;24237;50.106;20.014;2022-10-16T03:21:06;31.90;;;19.65;;
38455;SDS011;24237;50.106;20.014;2022-10-16T03:23:32;33.92;;;19.75;;
38455;SDS011;24237;50.106;20.014;2022-10-16T03:25:58;35.38;;;20.05;;
38455;SDS011;24237;50.106;20.014;2022-10-16T03:28:23;48.97;;;19.95;;
38455;SDS011;24237;50.106;20.014;2022-10-16T03:30:49;39.90;;;21.13;;
38455;SDS011;24237;50.106;20.014;2022-10-16T03:33:15;41.17;;;21.25;;
38455;SDS011;24237;50.106;20.014;2022-10-16T03:35:41;38.78;;;21.85;;
38455;SDS011;24237;50.106;20.014;2022-10-16T03:38:06;41.85;;;21.55;;
38455;SDS011;24237;50.106;20.014;2022-10-16T03:40:32;40.90;;;20.65;;
38455;SDS011;24237;50.106;20.014;2022-10-16T03:42:58;34.35;;;18.65;;
38455;SDS011;24237;50.106;20.014;2022-10-16T03:45:24;31.45;;;17.60;;
38455;SDS011;24237;50.106;20.014;2022-10-16T03:47:49;34.58;;;19.30;;
38455;SDS011;24237;50.106;20.014;2022-10-16T03:50:15;46.30;;;20.50;;
38455;SDS011;24237;50.106;20.014;2022-10-16T03:52:41;42.00;;;20.33;;
38455;SDS011;24237;50.106;20.014;2022-10-16T03:55:07;34.67;;;20.65;;
38455;SDS011;24237;50.106;20.014;2022-10-16T03:57:32;34.25;;;19.98;;
38455;SDS011;24237;50.106;20.014;2022-10-16T03:59:58;43.58;;;19.38;;
38455;SDS011;24237;50.106;20.014;2022-10-16T04:02:24;34.30;;;20.08;;
38455;SDS011;24237;50.106;20.014;2022-10-16T04:04:49;36.60;;;20.30;;
38455;SDS011;24237;50.106;20.014;2022-10-16T04:07:15;33.53;;;19.85;;
38455;SDS011;24237;50.106;20.014;2022-10-16T04:09:40;34.53;;;19.88;;
38455;SDS011;24237;50.106;20.014;2022-10-16T04:12:07;34.30;;;19.38;;
38455;SDS011;24237;50.106;20.014;2022-10-16T04:14:33;36.10;;;21.70;;
38455;SDS011;24237;50.106;20.014;2022-10-16T04:16:59;35.47;;;19.60;;
38455;SDS011;24237;50.106;20.014;2022-10-16T04:19:24;33.15;;;19.48;;
38455;SDS011;24237;50.106;20.014;2022-10-16T04:21:51;37.90;;;20.17;;
38455;SDS011;24237;50.106;20.014;2022-10-16T04:24:16;32.83;;;20.23;;
38455;SDS011;24237;50.106;20.014;2022-10-16T04:26:42;43.97;;;20.58;;
38455;SDS011;24237;50.106;20.014;2022-10-16T04:29:07;32.10;;;20.30;;
38455;SDS011;24237;50.106;20.014;2022-10-16T04:31:33;36.63;;;20.30;;
38455;SDS011;24237;50.106;20.014;2022-10-16T04:33:59;36.13;;;20.45;;
38455;SDS011;24237;50.106;20.014;2022-10-16T04:36:24;37.22;;;21.52;;
38455;SDS011;24237;50.106;20.014;2022-10-16T04:38:50;40.35;;;22.58;;
38455;SDS011;24237;50.106;20.014;2022-10-16T04:41:16;35.45;;;20.83;;
38455;SDS011;24237;50.106;20.014;2022-10-16T04:43:41;35.55;;;21.65;;
38455;SDS011;24237;50.106;20.014;2022-10-16T04:46:07;40.45;;;23.73;;
38455;SDS011;24237;50.106;20.014;2022-10-16T04:48:32;43.95;;;21.25;;
38455;SDS011;24237;50.106;20.014;2022-10-16T04:50:58;38.88;;;21.20;;
38455;SDS011;24237;50.106;20.014;2022-10-16T04:53:24;37.33;;;21.23;;
38455;SDS011;24237;50.106;20.014;2022-10-16T04:55:50;38.45;;;20.90;;
38455;SDS011;24237;50.106;20.014;2022-10-16T04:58:15;34.08;;;20.45;;
38455;SDS011;24237;50.106;20.014;2022-10-16T05:00:42;34.88;;;20.80;;
38455;SDS011;24237;50.106;20.014;2022-10-16T05:03:07;36.05;;;20.10;;
38455;SDS011;24237;50.106;20.014;2022-10-16T05:05:34;42.58;;;21.25;;
38455;SDS011;24237;50.106;20.014;2022-10-16T05:08:00;36.65;;;21.38;;
38455;SDS011;24237;50.106;20.014;2022-10-16T05:10:26;37.50;;;21.52;;
38455;SDS011;24237;50.106;20.014;2022-10-16T05:12:52;34.53;;;20.92;;
38455;SDS011;24237;50.106;20.014;2022-10-16T05:15:17;36.35;;;20.50;;
38455;SDS011;24237;50.106;20.014;2022-10-16T05:17:43;37.55;;;21.42;;
38455;SDS011;24237;50.106;20.014;2022-10-16T05:20:09;34.38;;;21.58;;
38455;SDS011;24237;50.106;20.014;2022-10-16T05:22:35;34.85;;;20.98;;
38455;SDS011;24237;50.106;20.014;2022-10-16T05:25:00;40.28;;;20.98;;
38455;SDS011;24237;50.106;20.014;2022-10-16T05:27:26;35.63;;;19.75;;
38455;SDS011;24237;50.106;20.014;2022-10-16T05:29:51;32.20;;;19.55;;
38455;SDS011;24237;50.106;20.014;2022-10-16T05:32:17;32.35;;;19.63;;
38455;SDS011;24237;50.106;20.014;2022-10-16T05:34:44;40.75;;;23.10;;
38455;SDS011;24237;50.106;20.014;2022-10-16T05:37:10;43.50;;;24.20;;
38455;SDS011;24237;50.106;20.014;2022-10-16T05:39:36;41.95;;;21.92;;
38455;SDS011;24237;50.106;20.014;2022-10-16T05:42:03;36.13;;;21.40;;
38455;SDS011;24237;50.106;20.014;2022-10-16T05:44:29;36.25;;;20.05;;
38455;SDS011;24237;50.106;20.014;2022-10-16T05:46:55;34.40;;;20.63;;
38455;SDS011;24237;50.106;20.014;2022-10-16T05:49:21;40.22;;;19.48;;
38455;SDS011;24237;50.106;20.014;2022-10-16T05:51:46;31.50;;;18.63;;
38455;SDS011;24237;50.106;20.014;2022-10-16T05:54:12;38.58;;;19.45;;
38455;SDS011;24237;50.106;20.014;2022-10-16T05:56:37;28.83;;;17.63;;
38455;SDS011;24237;50.106;20.014;2022-10-16T05:59:03;32.88;;;17.65;;
38455;SDS011;24237;50.106;20.014;2022-10-16T06:01:30;31.30;;;17.90;;
38455;SDS011;24237;50.106;20.014;2022-10-16T06:03:56;31.60;;;18.67;;
38455;SDS011;24237;50.106;20.014;2022-10-16T06:06:25;32.50;;;18.85;;
38455;SDS011;24237;50.106;20.014;2022-10-16T06:08:52;33.30;;;18.40;;
38455;SDS011;24237;50.106;20.014;2022-10-16T06:11:20;28.65;;;18.90;;
38455;SDS011;24237;50.106;20.014;2022-10-16T06:13:50;32.72;;;19.52;;
38455;SDS011;24237;50.106;20.014;2022-10-16T06:16:21;35.67;;;18.80;;
38455;SDS011;24237;50.106;20.014;2022-10-16T06:18:50;32.10;;;19.20;;
38455;SDS011;24237;50.106;20.014;2022-10-16T06:21:17;34.58;;;20.55;;
38455;SDS011;24237;50.106;20.014;2022-10-16T06:23:44;33.22;;;19.58;;
38455;SDS011;24237;50.106;20.014;2022-10-16T06:26:13;35.80;;;18.65;;
38455;SDS011;24237;50.106;20.014;2022-10-16T06:28:41;30.33;;;18.60;;
38455;SDS011;24237;50.106;20.014;2022-10-16T06:31:08;36.28;;;19.52;;
38455;SDS011;24237;50.106;20.014;2022-10-16T06:33:35;30.92;;;18.77;;
38455;SDS011;24237;50.106;20.014;2022-10-16T06:36:02;36.30;;;19.30;;
38455;SDS011;24237;50.106;20.014;2022-10-16T06:38:30;32.00;;;19.05;;
38455;SDS011;24237;50.106;20.014;2022-10-16T06:40:56;30.98;;;19.95;;
38455;SDS011;24237;50.106;20.014;2022-10-16T06:43:22;36.10;;;18.65;;
38455;SDS011;24237;50.106;20.014;2022-10-16T06:46:00;38.78;;;19.95;;
38455;SDS011;24237;50.106;20.014;2022-10-16T06:48:27;42.20;;;19.80;;
38455;SDS011;24237;50.106;20.014;2022-10-16T06:53:27;37.80;;;19.65;;
38455;SDS011;24237;50.106;20.014;2022-10-16T06:55:54;29.75;;;18.95;;
38455;SDS011;24237;50.106;20.014;2022-10-16T06:58:20;27.73;;;17.85;;
38455;SDS011;24237;50.106;20.014;2022-10-16T07:00:46;39.90;;;19.80;;
38455;SDS011;24237;50.106;20.014;2022-10-16T07:03:12;33.00;;;17.85;;
38455;SDS011;24237;50.106;20.014;2022-10-16T07:05:38;41.25;;;19.00;;
38455;SDS011;24237;50.106;20.014;2022-10-16T07:08:05;27.17;;;16.67;;
38455;SDS011;24237;50.106;20.014;2022-10-16T07:10:34;37.58;;;19.30;;
38455;SDS011;24237;50.106;20.014;2022-10-16T07:12:59;27.83;;;17.15;;
38455;SDS011;24237;50.106;20.014;2022-10-16T07:15:26;29.58;;;17.05;;
38455;SDS011;24237;50.106;20.014;2022-10-16T07:17:52;27.05;;;15.60;;
38455;SDS011;24237;50.106;20.014;2022-10-16T07:20:18;28.20;;;16.63;;
38455;SDS011;24237;50.106;20.014;2022-10-16T07:22:44;30.00;;;17.70;;
38455;SDS011;24237;50.106;20.014;2022-10-16T07:25:09;26.63;;;16.67;;
38455;SDS011;24237;50.106;20.014;2022-10-16T07:27:36;23.77;;;16.48;;
38455;SDS011;24237;50.106;20.014;2022-10-16T07:30:11;25.52;;;16.65;;
38455;SDS011;24237;50.106;20.014;2022-10-16T07:32:42;27.52;;;15.68;;
38455;SDS011;24237;50.106;20.014;2022-10-16T07:35:08;24.55;;;14.15;;
38455;SDS011;24237;50.106;20.014;2022-10-16T07:37:33;18.52;;;11.52;;
38455;SDS011;24237;50.106;20.014;2022-10-16T07:39:59;21.58;;;12.63;;
38455;SDS011;24237;50.106;20.014;2022-10-16T07:42:25;21.20;;;10.98;;
38455;SDS011;24237;50.106;20.014;2022-10-16T07:44:51;12.88;;;8.82;;
38455;SDS011;24237;50.106;20.014;2022-10-16T07:47:17;13.20;;;9.02;;
38455;SDS011;24237;50.106;20.014;2022-10-16T07:49:43;16.00;;;9.18;;
38455;SDS011;24237;50.106;20.014;2022-10-16T07:52:08;16.95;;;8.70;;
38455;SDS011;24237;50.106;20.014;2022-10-16T07:54:34;13.38;;;8.93;;
38455;SDS011;24237;50.106;20.014;2022-10-16T07:56:59;28.85;;;12.90;;
38455;SDS011;24237;50.106;20.014;2022-10-16T07:59:25;16.95;;;9.73;;
38455;SDS011;24237;50.106;20.014;2022-10-16T08:01:51;13.15;;;8.20;;
38455;SDS011;24237;50.106;20.014;2022-10-16T08:04:16;14.45;;;8.25;;
38455;SDS011;24237;50.106;20.014;2022-10-16T08:06:42;15.13;;;7.55;;
38455;SDS011;24237;50.106;20.014;2022-10-16T08:09:08;16.05;;;7.40;;
38455;SDS011;24237;50.106;20.014;2022-10-16T08:11:34;15.57;;;7.47;;
38455;SDS011;24237;50.106;20.014;2022-10-16T08:14:00;10.38;;;6.80;;
38455;SDS011;24237;50.106;20.014;2022-10-16T08:16:25;17.20;;;7.90;;
38455;SDS011;24237;50.106;20.014;2022-10-16T08:18:51;10.98;;;7.65;;
38455;SDS011;24237;50.106;20.014;2022-10-16T08:21:18;9.50;;;7.13;;
38455;SDS011;24237;50.106;20.014;2022-10-16T08:23:45;15.07;;;7.50;;
38455;SDS011;24237;50.106;20.014;2022-10-16T08:26:11;13.13;;;7.50;;
38455;SDS011;24237;50.106;20.014;2022-10-16T08:28:37;12.93;;;7.22;;
38455;SDS011;24237;50.106;20.014;2022-10-16T08:33:36;11.88;;;7.50;;
38455;SDS011;24237;50.106;20.014;2022-10-16T08:36:03;13.80;;;7.60;;
38455;SDS011;24237;50.106;20.014;2022-10-16T08:38:30;15.20;;;7.10;;
38455;SDS011;24237;50.106;20.014;2022-10-16T08:49:25;10.98;;;7.20;;
38455;SDS011;24237;50.106;20.014;2022-10-16T08:51:52;17.05;;;8.20;;
38455;SDS011;24237;50.106;20.014;2022-10-16T08:54:34;13.48;;;8.00;;
38455;SDS011;24237;50.106;20.014;2022-10-16T08:57:09;13.48;;;8.63;;
38455;SDS011;24237;50.106;20.014;2022-10-16T08:59:39;15.52;;;7.60;;
38455;SDS011;24237;50.106;20.014;2022-10-16T09:02:23;12.48;;;6.68;;
38455;SDS011;24237;50.106;20.014;2022-10-16T09:05:11;10.77;;;7.07;;
38455;SDS011;24237;50.106;20.014;2022-10-16T09:13:18;13.13;;;7.22;;
38455;SDS011;24237;50.106;20.014;2022-10-16T09:22:15;9.55;;;6.07;;
38455;SDS011;24237;50.106;20.014;2022-10-16T09:24:41;13.90;;;7.30;;
38455;SDS011;24237;50.106;20.014;2022-10-16T09:27:13;11.05;;;7.15;;
38455;SDS011;24237;50.106;20.014;2022-10-16T09:29:40;16.05;;;7.10;;
38455;SDS011;24237;50.106;20.014;2022-10-16T09:32:12;14.23;;;7.13;;
38455;SDS011;24237;50.106;20.014;2022-10-16T09:34:52;9.25;;;6.35;;
38455;SDS011;24237;50.106;20.014;2022-10-16T09:37:21;13.93;;;7.25;;
38455;SDS011;24237;50.106;20.014;2022-10-16T09:39:49;10.95;;;7.15;;
38455;SDS011;24237;50.106;20.014;2022-10-16T09:42:19;12.65;;;6.68;;
38455;SDS011;24237;50.106;20.014;2022-10-16T09:45:03;10.38;;;6.68;;
38455;SDS011;24237;50.106;20.014;2022-10-16T09:47:30;12.57;;;9.13;;
38455;SDS011;24237;50.106;20.014;2022-10-16T09:50:19;10.10;;;7.05;;
38455;SDS011;24237;50.106;20.014;2022-10-16T09:52:50;12.48;;;7.43;;
38455;SDS011;24237;50.106;20.014;2022-10-16T09:55:17;12.32;;;6.65;;
38455;SDS011;24237;50.106;20.014;2022-10-16T09:57:52;14.30;;;8.13;;
38455;SDS011;24237;50.106;20.014;2022-10-16T10:00:19;13.88;;;8.10;;
38455;SDS011;24237;50.106;20.014;2022-10-16T10:02:46;11.98;;;7.53;;
38455;SDS011;24237;50.106;20.014;2022-10-16T10:05:22;13.00;;;7.65;;
38455;SDS011;24237;50.106;20.014;2022-10-16T10:07:54;11.63;;;7.63;;
38455;SDS011;24237;50.106;20.014;2022-10-16T10:10:27;12.02;;;6.85;;
38455;SDS011;24237;50.106;20.014;2022-10-16T10:12:54;15.40;;;7.82;;
38455;SDS011;24237;50.106;20.014;2022-10-16T10:15:21;12.83;;;7.27;;
38455;SDS011;24237;50.106;20.014;2022-10-16T10:20:26;9.77;;;6.97;;
38455;SDS011;24237;50.106;20.014;2022-10-16T10:23:24;16.08;;;7.30;;
38455;SDS011;24237;50.106;20.014;2022-10-16T10:32:09;13.52;;;7.15;;
38455;SDS011;24237;50.106;20.014;2022-10-16T10:37:37;10.25;;;6.15;;
38455;SDS011;24237;50.106;20.014;2022-10-16T10:45:51;11.60;;;6.72;;
38455;SDS011;24237;50.106;20.014;2022-10-16T10:51:18;14.27;;;7.72;;
38455;SDS011;24237;50.106;20.014;2022-10-16T11:02:19;11.88;;;6.40;;
38455;SDS011;24237;50.106;20.014;2022-10-16T11:07:45;13.25;;;6.18;;
38455;SDS011;24237;50.106;20.014;2022-10-16T11:10:24;19.77;;;6.35;;
38455;SDS011;24237;50.106;20.014;2022-10-16T11:13:04;10.60;;;6.10;;
38455;SDS011;24237;50.106;20.014;2022-10-16T11:15:37;11.48;;;6.05;;
38455;SDS011;24237;50.106;20.014;2022-10-16T11:18:29;12.27;;;6.25;;
38455;SDS011;24237;50.106;20.014;2022-10-16T11:21:16;11.93;;;5.75;;
38455;SDS011;24237;50.106;20.014;2022-10-16T11:24:20;9.23;;;5.55;;
38455;SDS011;24237;50.106;20.014;2022-10-16T11:27:14;11.45;;;5.75;;
38455;SDS011;24237;50.106;20.014;2022-10-16T11:39:21;15.10;;;6.10;;
38455;SDS011;24237;50.106;20.014;2022-10-16T11:45:18;10.10;;;6.15;;
38455;SDS011;24237;50.106;20.014;2022-10-16T11:47:58;14.23;;;7.95;;
38455;SDS011;24237;50.106;20.014;2022-10-16T11:54:45;13.63;;;5.82;;
38455;SDS011;24237;50.106;20.014;2022-10-16T11:57:33;13.73;;;6.13;;
38455;SDS011;24237;50.106;20.014;2022-10-16T12:02:57;10.95;;;5.95;;
38455;SDS011;24237;50.106;20.014;2022-10-16T12:05:33;16.88;;;7.07;;
38455;SDS011;24237;50.106;20.014;2022-10-16T12:08:14;10.32;;;5.88;;
38455;SDS011;24237;50.106;20.014;2022-10-16T12:10:42;8.70;;;6.00;;
38455;SDS011;24237;50.106;20.014;2022-10-16T12:13:28;9.65;;;6.22;;
38455;SDS011;24237;50.106;20.014;2022-10-16T12:16:20;11.38;;;5.28;;
38455;SDS011;24237;50.106;20.014;2022-10-16T12:28:06;13.32;;;5.10;;
38455;SDS011;24237;50.106;20.014;2022-10-16T12:31:16;8.50;;;5.60;;
38455;SDS011;24237;50.106;20.014;2022-10-16T12:33:58;12.25;;;5.47;;
38455;SDS011;24237;50.106;20.014;2022-10-16T12:36:29;14.02;;;5.90;;
38455;SDS011;24237;50.106;20.014;2022-10-16T12:39:04;9.25;;;5.53;;
38455;SDS011;24237;50.106;20.014;2022-10-16T12:41:34;8.10;;;5.28;;
38455;SDS011;24237;50.106;20.014;2022-10-16T12:44:04;11.45;;;5.32;;
38455;SDS011;24237;50.106;20.014;2022-10-16T13:16:46;8.63;;;4.90;;
38455;SDS011;24237;50.106;20.014;2022-10-16T13:19:29;8.55;;;4.50;;
38455;SDS011;24237;50.106;20.014;2022-10-16T13:29:21;8.88;;;4.43;;
38455;SDS011;24237;50.106;20.014;2022-10-16T13:32:07;7.93;;;4.03;;
38455;SDS011;24237;50.106;20.014;2022-10-16T13:34:47;6.05;;;3.90;;
38455;SDS011;24237;50.106;20.014;2022-10-16T13:37:20;9.75;;;4.10;;
38455;SDS011;24237;50.106;20.014;2022-10-16T13:39:48;6.43;;;4.22;;
38455;SDS011;24237;50.106;20.014;2022-10-16T13:42:23;7.13;;;4.18;;
38455;SDS011;24237;50.106;20.014;2022-10-16T13:44:52;8.95;;;4.20;;
38455;SDS011;24237;50.106;20.014;2022-10-16T13:47:33;8.32;;;4.32;;
38455;SDS011;24237;50.106;20.014;2022-10-16T13:57:34;6.43;;;4.38;;
38455;SDS011;24237;50.106;20.014;2022-10-16T14:00:02;6.43;;;4.30;;
38455;SDS011;24237;50.106;20.014;2022-10-16T14:02:45;5.50;;;4.05;;
38455;SDS011;24237;50.106;20.014;2022-10-16T14:05:28;7.65;;;3.83;;
38455;SDS011;24237;50.106;20.014;2022-10-16T14:07:54;10.75;;;4.15;;
38455;SDS011;24237;50.106;20.014;2022-10-16T14:10:25;7.20;;;4.32;;
38455;SDS011;24237;50.106;20.014;2022-10-16T14:13:02;8.50;;;3.97;;
38455;SDS011;24237;50.106;20.014;2022-10-16T14:15:45;8.38;;;4.30;;
38455;SDS011;24237;50.106;20.014;2022-10-16T14:25:00;14.32;;;4.68;;
38455;SDS011;24237;50.106;20.014;2022-10-16T14:27:43;10.27;;;4.35;;
38455;SDS011;24237;50.106;20.014;2022-10-16T14:30:19;9.98;;;4.25;;
38455;SDS011;24237;50.106;20.014;2022-10-16T14:41:31;5.97;;;3.90;;
38455;SDS011;24237;50.106;20.014;2022-10-16T14:44:05;5.65;;;3.67;;
38455;SDS011;24237;50.106;20.014;2022-10-16T14:46:43;7.85;;;4.15;;
38455;SDS011;24237;50.106;20.014;2022-10-16T14:51:36;8.35;;;5.13;;
38455;SDS011;24237;50.106;20.014;2022-10-16T14:54:09;8.25;;;3.88;;
38455;SDS011;24237;50.106;20.014;2022-10-16T14:56:46;7.32;;;4.30;;
38455;SDS011;24237;50.106;20.014;2022-10-16T14:59:16;5.88;;;3.92;;
38455;SDS011;24237;50.106;20.014;2022-10-16T15:01:45;7.10;;;4.65;;
38455;SDS011;24237;50.106;20.014;2022-10-16T15:04:11;8.23;;;4.55;;
38455;SDS011;24237;50.106;20.014;2022-10-16T15:06:38;9.38;;;4.55;;
38455;SDS011;24237;50.106;20.014;2022-10-16T15:09:03;8.02;;;4.53;;
38455;SDS011;24237;50.106;20.014;2022-10-16T15:11:29;6.40;;;4.00;;
38455;SDS011;24237;50.106;20.014;2022-10-16T15:13:57;12.70;;;5.10;;
38455;SDS011;24237;50.106;20.014;2022-10-16T15:16:23;12.38;;;4.60;;
38455;SDS011;24237;50.106;20.014;2022-10-16T15:18:49;7.50;;;4.28;;
38455;SDS011;24237;50.106;20.014;2022-10-16T15:21:20;9.20;;;4.45;;
38455;SDS011;24237;50.106;20.014;2022-10-16T15:23:55;7.47;;;4.50;;
38455;SDS011;24237;50.106;20.014;2022-10-16T15:26:26;9.60;;;4.82;;
38455;SDS011;24237;50.106;20.014;2022-10-16T15:31:18;7.80;;;4.53;;
38455;SDS011;24237;50.106;20.014;2022-10-16T15:33:46;9.75;;;5.13;;
38455;SDS011;24237;50.106;20.014;2022-10-16T15:36:23;11.93;;;5.10;;
38455;SDS011;24237;50.106;20.014;2022-10-16T15:38:50;9.73;;;5.22;;
38455;SDS011;24237;50.106;20.014;2022-10-16T15:41:16;7.93;;;5.03;;
38455;SDS011;24237;50.106;20.014;2022-10-16T15:43:42;9.88;;;5.03;;
38455;SDS011;24237;50.106;20.014;2022-10-16T15:46:09;13.32;;;5.57;;
38455;SDS011;24237;50.106;20.014;2022-10-16T15:48:37;22.10;;;5.55;;
38455;SDS011;24237;50.106;20.014;2022-10-16T15:51:06;9.13;;;4.85;;
38455;SDS011;24237;50.106;20.014;2022-10-16T15:53:33;10.52;;;5.13;;
38455;SDS011;24237;50.106;20.014;2022-10-16T15:56:03;10.85;;;5.32;;
38455;SDS011;24237;50.106;20.014;2022-10-16T15:58:32;13.10;;;5.85;;
38455;SDS011;24237;50.106;20.014;2022-10-16T16:00:58;11.65;;;5.72;;
38455;SDS011;24237;50.106;20.014;2022-10-16T16:03:35;9.70;;;5.50;;
38455;SDS011;24237;50.106;20.014;2022-10-16T16:06:08;9.98;;;5.70;;
38455;SDS011;24237;50.106;20.014;2022-10-16T16:08:35;11.82;;;5.78;;
38455;SDS011;24237;50.106;20.014;2022-10-16T16:11:06;8.63;;;5.45;;
38455;SDS011;24237;50.106;20.014;2022-10-16T16:13:34;9.95;;;5.25;;
38455;SDS011;24237;50.106;20.014;2022-10-16T16:16:04;14.05;;;6.38;;
38455;SDS011;24237;50.106;20.014;2022-10-16T16:18:34;11.57;;;6.50;;
38455;SDS011;24237;50.106;20.014;2022-10-16T16:21:00;17.02;;;7.28;;
38455;SDS011;24237;50.106;20.014;2022-10-16T16:23:26;26.83;;;13.45;;
38455;SDS011;24237;50.106;20.014;2022-10-16T16:28:35;11.68;;;6.15;;
38455;SDS011;24237;50.106;20.014;2022-10-16T16:31:11;14.85;;;6.15;;
38455;SDS011;24237;50.106;20.014;2022-10-16T16:33:40;10.80;;;5.93;;
38455;SDS011;24237;50.106;20.014;2022-10-16T16:36:05;8.88;;;5.72;;
38455;SDS011;24237;50.106;20.014;2022-10-16T16:38:32;13.70;;;6.63;;
38455;SDS011;24237;50.106;20.014;2022-10-16T16:40:58;12.30;;;6.38;;
38455;SDS011;24237;50.106;20.014;2022-10-16T16:43:24;15.88;;;7.47;;
38455;SDS011;24237;50.106;20.014;2022-10-16T16:45:51;16.63;;;6.63;;
38455;SDS011;24237;50.106;20.014;2022-10-16T16:48:17;12.02;;;6.50;;
38455;SDS011;24237;50.106;20.014;2022-10-16T16:50:43;14.07;;;6.68;;
38455;SDS011;24237;50.106;20.014;2022-10-16T16:53:09;14.25;;;6.07;;
38455;SDS011;24237;50.106;20.014;2022-10-16T16:55:35;10.30;;;6.60;;
38455;SDS011;24237;50.106;20.014;2022-10-16T16:58:00;15.25;;;7.68;;
38455;SDS011;24237;50.106;20.014;2022-10-16T17:00:27;16.50;;;9.07;;
38455;SDS011;24237;50.106;20.014;2022-10-16T17:02:53;14.75;;;7.85;;
38455;SDS011;24237;50.106;20.014;2022-10-16T17:05:19;13.57;;;7.75;;
38455;SDS011;24237;50.106;20.014;2022-10-16T17:07:44;15.25;;;7.88;;
38455;SDS011;24237;50.106;20.014;2022-10-16T17:10:10;12.90;;;7.60;;
38455;SDS011;24237;50.106;20.014;2022-10-16T17:12:36;15.18;;;7.93;;
38455;SDS011;24237;50.106;20.014;2022-10-16T17:15:02;12.65;;;8.27;;
38455;SDS011;24237;50.106;20.014;2022-10-16T17:17:28;14.18;;;7.35;;
38455;SDS011;24237;50.106;20.014;2022-10-16T17:19:54;22.83;;;8.18;;
38455;SDS011;24237;50.106;20.014;2022-10-16T17:22:19;18.85;;;7.80;;